Time;durP1;ratioP1;P1;durP2;ratioP2;P2;SDS_P1;SDS_P2;PMS_P1;PMS_P2;Temp;Humidity;BMP_temperature;BMP_pressure;BME280_temperature;BME280_humidity;BME280_pressure;Samples;Min_cycle;Max_cycle;Signal;HPM_P1;HPM_P2
2022/05/17 00:00:57;;;;;;;16.37;8.80;;;14.10;99.90;;;;;;5014426;28;20194;-88
2022/05/17 00:03:23;;;;;;;21.27;9.93;;;14.10;99.90;;;;;;5014825;28;20243;-87
2022/05/17 00:05:49;;;;;;;17.27;9.97;;;14.10;99.90;;;;;;5014671;28;20227;-87
2022/05/17 00:08:16;;;;;;;14.23;9.50;;;14.00;99.90;;;;;;5014444;28;20176;-87
2022/05/17 00:10:43;;;;;;;18.17;10.10;;;14.10;99.90;;;;;;5014267;28;20190;-87
2022/05/17 00:13:08;;;;;;;19.97;10.00;;;14.20;99.90;;;;;;5014268;28;20174;-87
2022/05/17 00:15:38;;;;;;;26.67;10.40;;;14.20;99.90;;;;;;5014523;28;20316;-87
2022/05/17 00:18:05;;;;;;;22.90;10.23;;;14.20;99.90;;;;;;5014615;28;20196;-87
2022/05/17 00:20:31;;;;;;;21.63;10.13;;;14.10;99.90;;;;;;5014408;28;20687;-87
2022/05/17 00:22:56;;;;;;;18.53;9.97;;;14.10;99.90;;;;;;5014013;28;20176;-87
2022/05/17 00:25:24;;;;;;;21.90;10.70;;;14.10;99.90;;;;;;5014341;28;20551;-87
2022/05/17 00:27:51;;;;;;;26.03;10.67;;;14.00;99.90;;;;;;5014824;28;20683;-87
2022/05/17 00:30:16;;;;;;;21.57;11.50;;;13.90;99.90;;;;;;5014255;28;20267;-86
2022/05/17 00:32:42;;;;;;;17.53;11.00;;;14.00;99.90;;;;;;5014122;28;20177;-87
2022/05/17 00:35:09;;;;;;;18.63;10.27;;;14.10;99.90;;;;;;5014267;28;20178;-87
2022/05/17 00:37:35;;;;;;;19.83;10.77;;;13.80;99.90;;;;;;5060040;23;20384;-83
2022/05/17 00:40:02;;;;;;;17.40;10.13;;;13.90;99.90;;;;;;5014299;28;20758;-83
2022/05/17 00:42:28;;;;;;;22.43;11.07;;;14.00;99.90;;;;;;5031218;28;20252;-84
2022/05/17 00:44:54;;;;;;;24.23;10.73;;;13.90;99.90;;;;;;5014089;28;20200;-84
2022/05/17 00:47:27;;;;;;;21.93;10.13;;;13.90;99.90;;;;;;5014147;28;20173;-84
2022/05/17 00:49:58;;;;;;;19.13;10.40;;;13.90;99.90;;;;;;5032281;28;20706;-83
2022/05/17 00:52:47;;;;;;;20.40;9.83;;;14.00;99.90;;;;;;5037010;23;20233;-84
2022/05/17 00:55:31;;;;;;;23.73;12.17;;;13.90;99.90;;;;;;5032603;28;20192;-84
2022/05/17 00:58:03;;;;;;;16.07;10.27;;;13.90;99.90;;;;;;5017984;28;20190;-83
2022/05/17 01:00:35;;;;;;;20.57;10.27;;;13.90;99.90;;;;;;5038065;28;20180;-82
2022/05/17 01:03:06;;;;;;;17.10;9.97;;;13.90;99.90;;;;;;5038912;28;20188;-84
2022/05/17 01:05:38;;;;;;;18.73;9.83;;;13.80;99.90;;;;;;5037930;28;20223;-83
2022/05/17 01:08:07;;;;;;;21.13;10.13;;;13.80;99.90;;;;;;5038241;28;20176;-83
2022/05/17 01:10:33;;;;;;;18.83;9.63;;;13.90;99.90;;;;;;5040339;28;20637;-83
2022/05/17 01:15:44;;;;;;;20.40;10.07;;;13.90;99.90;;;;;;5040033;28;20181;-81
2022/05/17 01:18:10;;;;;;;17.27;9.97;;;14.00;99.90;;;;;;5022225;28;20197;-83
2022/05/17 01:20:35;;;;;;;23.73;11.00;;;13.90;99.90;;;;;;5040283;28;20177;-84
2022/05/17 01:23:01;;;;;;;16.00;9.67;;;13.90;99.90;;;;;;5039796;28;20209;-84
2022/05/17 01:25:28;;;;;;;17.53;9.93;;;13.70;99.90;;;;;;5039975;28;20171;-82
2022/05/17 01:28:17;;;;;;;18.97;9.97;;;13.80;99.90;;;;;;5022227;28;20182;-83
2022/05/17 01:30:43;;;;;;;20.77;10.00;;;13.90;99.90;;;;;;5032111;28;20176;-84
2022/05/17 01:33:14;;;;;;;15.97;9.47;;;13.90;99.90;;;;;;5021640;28;20262;-84
2022/05/17 01:35:40;;;;;;;20.17;9.97;;;13.80;99.90;;;;;;5039798;28;20172;-84
2022/05/17 01:38:06;;;;;;;21.93;10.67;;;13.80;99.90;;;;;;5039378;28;20677;-83
2022/05/17 01:40:32;;;;;;;15.60;10.23;;;13.80;99.90;;;;;;5040664;28;20549;-84
2022/05/17 01:42:57;;;;;;;20.77;10.47;;;13.70;99.90;;;;;;5021100;28;20188;-83
2022/05/17 01:45:23;;;;;;;20.50;9.87;;;13.70;99.90;;;;;;5022112;28;20177;-84
2022/05/17 01:47:49;;;;;;;20.87;9.87;;;13.70;99.90;;;;;;5040203;28;20173;-83
2022/05/17 01:50:15;;;;;;;21.60;10.20;;;13.70;99.90;;;;;;5040152;28;20230;-84
2022/05/17 01:52:40;;;;;;;20.27;10.70;;;13.70;99.90;;;;;;5020636;28;20210;-82
2022/05/17 01:55:06;;;;;;;18.70;9.87;;;13.70;99.90;;;;;;5021365;28;20186;-84
2022/05/17 01:57:32;;;;;;;18.97;10.33;;;13.50;99.90;;;;;;5020885;28;20172;-83
2022/05/17 01:59:58;;;;;;;25.87;11.27;;;13.50;99.90;;;;;;5021520;28;20169;-83
2022/05/17 02:02:23;;;;;;;19.90;11.10;;;13.50;99.90;;;;;;5020042;28;20197;-83
2022/05/17 02:04:49;;;;;;;23.27;10.53;;;13.50;99.90;;;;;;5020585;28;20181;-83
2022/05/17 02:07:14;;;;;;;20.20;11.40;;;13.50;99.90;;;;;;5035772;28;20237;-83
2022/05/17 02:09:40;;;;;;;23.90;11.50;;;13.60;99.90;;;;;;5021148;28;20247;-83
2022/05/17 02:12:06;;;;;;;20.23;10.93;;;13.60;99.90;;;;;;5036817;28;20199;-83
2022/05/17 02:14:32;;;;;;;26.90;11.53;;;13.60;99.90;;;;;;5038088;28;20174;-83
2022/05/17 02:17:00;;;;;;;23.80;11.60;;;13.50;99.90;;;;;;5038329;28;20175;-83
2022/05/17 02:19:25;;;;;;;21.57;11.43;;;13.60;99.90;;;;;;5020528;28;20197;-82
2022/05/17 02:21:51;;;;;;;22.00;11.27;;;13.60;99.90;;;;;;5037058;28;20204;-83
2022/05/17 02:24:16;;;;;;;27.13;11.63;;;13.60;99.90;;;;;;5038742;28;20649;-83
2022/05/17 02:26:42;;;;;;;18.83;10.77;;;13.60;99.90;;;;;;5020444;28;20179;-83
2022/05/17 02:29:08;;;;;;;22.27;11.43;;;13.50;99.90;;;;;;5037766;28;20515;-83
2022/05/17 02:31:34;;;;;;;20.83;10.57;;;13.50;99.90;;;;;;5019548;28;20570;-83
2022/05/17 02:34:00;;;;;;;31.90;12.20;;;13.60;99.90;;;;;;5038732;28;20332;-83
2022/05/17 02:36:26;;;;;;;24.97;11.63;;;13.40;99.90;;;;;;5038319;28;20180;-83
2022/05/17 02:38:51;;;;;;;27.53;11.73;;;13.40;99.90;;;;;;5038760;28;20210;-83
2022/05/17 02:41:18;;;;;;;23.57;11.40;;;13.40;99.90;;;;;;5037423;28;20181;-83
2022/05/17 02:43:47;;;;;;;20.83;11.10;;;13.40;99.90;;;;;;5037926;28;20191;-83
2022/05/17 02:46:13;;;;;;;20.73;11.50;;;13.40;99.90;;;;;;5032396;28;20178;-83
2022/05/17 02:48:39;;;;;;;24.63;11.80;;;13.40;99.90;;;;;;5037893;28;20184;-84
2022/05/17 02:51:10;;;;;;;19.90;10.57;;;13.30;99.90;;;;;;5019748;28;20234;-83
2022/05/17 02:53:36;;;;;;;21.47;10.90;;;13.30;99.90;;;;;;5037818;28;20223;-83
2022/05/17 02:56:02;;;;;;;19.87;10.53;;;13.30;99.90;;;;;;5037924;28;20179;-83
2022/05/17 02:58:27;;;;;;;25.10;11.73;;;13.20;99.90;;;;;;5037956;28;20259;-83
2022/05/17 03:00:53;;;;;;;20.13;10.90;;;13.20;99.90;;;;;;5037673;28;20182;-83
2022/05/17 03:03:18;;;;;;;17.10;10.87;;;13.20;99.90;;;;;;5019488;28;20220;-83
2022/05/17 03:05:44;;;;;;;17.83;10.40;;;13.20;99.90;;;;;;5018203;28;20185;-83
2022/05/17 03:08:09;;;;;;;29.17;11.17;;;13.30;99.90;;;;;;5028206;28;20188;-82
2022/05/17 03:10:35;;;;;;;22.27;11.23;;;13.20;99.90;;;;;;5037393;28;20174;-83
2022/05/17 03:13:01;;;;;;;16.47;10.27;;;13.10;99.90;;;;;;5019045;28;20194;-83
2022/05/17 03:15:27;;;;;;;20.30;10.57;;;13.10;99.90;;;;;;5038154;28;20176;-83
2022/05/17 03:17:52;;;;;;;24.10;11.37;;;13.10;99.90;;;;;;5017728;28;20676;-82
2022/05/17 03:20:18;;;;;;;22.30;11.00;;;13.10;99.90;;;;;;5033862;28;20214;-81
2022/05/17 03:22:43;;;;;;;19.50;10.90;;;13.10;99.90;;;;;;5034442;28;20549;-84
2022/05/17 03:25:09;;;;;;;20.50;11.63;;;13.00;99.90;;;;;;5036622;28;20177;-83
2022/05/17 03:27:35;;;;;;;21.83;11.10;;;13.10;99.90;;;;;;5037586;28;20176;-83
2022/05/17 03:30:00;;;;;;;25.93;12.23;;;13.20;99.90;;;;;;5037519;28;20187;-83
2022/05/17 03:32:26;;;;;;;22.10;11.60;;;13.10;99.90;;;;;;5037145;28;20191;-83
2022/05/17 03:34:52;;;;;;;21.73;11.60;;;13.00;99.90;;;;;;5037499;28;20214;-83
2022/05/17 03:37:17;;;;;;;23.80;12.00;;;13.20;99.90;;;;;;5037722;28;20276;-83
2022/05/17 03:39:43;;;;;;;20.37;11.63;;;13.10;99.90;;;;;;5019801;28;20261;-83
2022/05/17 03:42:09;;;;;;;26.50;12.30;;;13.20;99.90;;;;;;5036994;28;20222;-83
2022/05/17 03:44:36;;;;;;;26.13;12.10;;;13.30;99.90;;;;;;5019836;28;20182;-83
2022/05/17 03:47:06;;;;;;;30.33;13.00;;;13.30;99.90;;;;;;5038052;28;20205;-84
2022/05/17 03:49:32;;;;;;;28.57;12.90;;;13.30;99.90;;;;;;5037826;28;20179;-84
2022/05/17 03:51:58;;;;;;;23.50;11.87;;;13.30;99.90;;;;;;5037526;28;20214;-84
2022/05/17 03:54:25;;;;;;;25.93;12.70;;;13.30;99.90;;;;;;5037642;28;20173;-84
2022/05/17 03:56:51;;;;;;;24.97;12.37;;;13.40;99.90;;;;;;5037766;28;20175;-84
2022/05/17 03:59:17;;;;;;;31.67;12.77;;;13.40;99.90;;;;;;5019245;28;20262;-84
2022/05/17 04:01:42;;;;;;;26.63;12.73;;;13.30;99.90;;;;;;5019337;28;20175;-84
2022/05/17 04:04:08;;;;;;;25.67;12.37;;;13.30;99.90;;;;;;5038229;28;20178;-84
2022/05/17 04:06:33;;;;;;;25.23;11.37;;;13.20;99.90;;;;;;5018046;28;20725;-83
2022/05/17 04:08:59;;;;;;;20.47;11.13;;;13.30;99.90;;;;;;5037951;28;20180;-84
2022/05/17 04:11:24;;;;;;;18.47;10.70;;;13.30;99.90;;;;;;5036593;28;20171;-83
2022/05/17 04:13:50;;;;;;;24.93;10.97;;;13.30;99.90;;;;;;5034841;28;20199;-84
2022/05/17 04:16:15;;;;;;;19.83;10.87;;;13.40;99.90;;;;;;5037525;28;20228;-84
2022/05/17 04:18:41;;;;;;;20.77;11.23;;;13.30;99.90;;;;;;5038065;28;20201;-83
2022/05/17 04:21:07;;;;;;;21.17;11.70;;;13.30;99.90;;;;;;5036680;28;20177;-83
2022/05/17 04:23:33;;;;;;;21.83;11.80;;;13.40;99.90;;;;;;5038071;28;20193;-83
2022/05/17 04:25:58;;;;;;;24.83;11.13;;;13.40;99.90;;;;;;5037522;28;20164;-83
2022/05/17 04:28:24;;;;;;;22.57;11.10;;;13.60;99.90;;;;;;5020050;28;20175;-83
2022/05/17 04:30:50;;;;;;;19.20;11.07;;;13.60;99.90;;;;;;5037890;28;20539;-84
2022/05/17 04:33:16;;;;;;;19.97;10.30;;;13.70;99.90;;;;;;5037132;28;20196;-84
2022/05/17 04:35:41;;;;;;;19.10;9.53;;;13.70;99.90;;;;;;5039693;28;20238;-84
2022/05/17 04:38:07;;;;;;;19.63;10.33;;;13.90;99.90;;;;;;5023907;28;20194;-83
2022/05/17 04:40:34;;;;;;;15.17;9.07;;;14.20;99.90;;;;;;5042474;28;20176;-84
2022/05/17 04:43:00;;;;;;;18.43;9.33;;;14.70;99.90;;;;;;5041623;28;20186;-83
2022/05/17 04:45:26;;;;;;;12.10;7.37;;;15.00;99.90;;;;;;5042462;28;20223;-84
2022/05/17 04:47:52;;;;;;;10.90;6.97;;;15.30;99.90;;;;;;5042570;28;20280;-83
2022/05/17 04:50:19;;;;;;;10.97;6.73;;;15.60;99.90;;;;;;5025028;28;20578;-83
2022/05/17 04:52:47;;;;;;;12.23;6.53;;;15.70;99.90;;;;;;5024057;28;20221;-83
2022/05/17 04:55:14;;;;;;;14.73;6.70;;;15.70;99.90;;;;;;5042889;28;20269;-83
2022/05/17 04:57:39;;;;;;;11.33;7.27;;;15.90;99.90;;;;;;5043216;28;20173;-83
2022/05/17 05:00:08;;;;;;;13.63;8.07;;;15.60;99.90;;;;;;5043096;28;20170;-83
2022/05/17 05:02:34;;;;;;;14.53;7.33;;;15.60;99.90;;;;;;5024473;28;20186;-83
2022/05/17 05:04:59;;;;;;;13.57;7.60;;;15.60;99.90;;;;;;5040427;28;20514;-83
2022/05/17 05:07:25;;;;;;;17.07;7.70;;;15.60;99.90;;;;;;5025259;28;20602;-83
2022/05/17 05:09:50;;;;;;;14.43;7.47;;;15.70;99.90;;;;;;5025078;28;20176;-83
2022/05/17 05:12:16;;;;;;;14.07;7.83;;;15.70;99.90;;;;;;5042713;28;20232;-83
2022/05/17 05:14:41;;;;;;;15.57;7.43;;;15.70;99.90;;;;;;5042658;28;20229;-83
2022/05/17 05:17:09;;;;;;;19.87;7.67;;;15.90;99.90;;;;;;5024900;28;20595;-85
2022/05/17 05:19:34;;;;;;;13.20;7.57;;;15.90;99.90;;;;;;5026322;28;20202;-84
2022/05/17 05:22:00;;;;;;;13.20;7.13;;;16.10;99.90;;;;;;5046653;28;20193;-82
2022/05/17 05:24:26;;;;;;;21.50;8.00;;;16.20;99.90;;;;;;5031598;28;20261;-84
2022/05/17 05:26:51;;;;;;;17.57;7.57;;;16.00;99.90;;;;;;5048712;28;20167;-84
2022/05/17 05:29:17;;;;;;;14.67;7.47;;;15.90;99.90;;;;;;5047626;28;20201;-84
2022/05/17 05:31:42;;;;;;;13.80;6.93;;;16.10;99.90;;;;;;5048098;28;20178;-84
2022/05/17 05:34:08;;;;;;;18.80;7.37;;;16.20;99.90;;;;;;5045861;28;20257;-84
2022/05/17 05:36:33;;;;;;;12.37;7.70;;;16.40;99.90;;;;;;5024081;28;20261;-84
2022/05/17 05:38:59;;;;;;;17.30;7.57;;;16.40;99.90;;;;;;5041543;28;20198;-84
2022/05/17 05:41:24;;;;;;;12.67;7.10;;;16.50;99.90;;;;;;5040678;28;20237;-84
2022/05/17 05:43:50;;;;;;;14.33;7.40;;;16.60;99.90;;;;;;5022423;28;20588;-84
2022/05/17 05:46:15;;;;;;;16.70;7.67;;;16.40;99.90;;;;;;5021962;28;20216;-84
2022/05/17 05:48:41;;;;;;;13.80;7.53;;;16.70;99.90;;;;;;5023181;28;20217;-84
2022/05/17 05:51:07;;;;;;;15.20;7.33;;;16.90;99.90;;;;;;5040214;28;20174;-84
2022/05/17 05:53:33;;;;;;;18.03;7.97;;;17.20;99.90;;;;;;5040337;28;20205;-83
2022/05/17 05:56:01;;;;;;;13.97;7.10;;;17.40;99.90;;;;;;5023678;28;20178;-83
2022/05/17 05:58:28;;;;;;;16.50;7.27;;;17.60;99.90;;;;;;5041010;28;20194;-84
2022/05/17 06:00:54;;;;;;;13.40;7.23;;;17.90;99.90;;;;;;5041124;28;20249;-83
2022/05/17 06:03:19;;;;;;;12.80;6.27;;;18.00;99.90;;;;;;5023871;28;20241;-84
2022/05/17 06:05:45;;;;;;;15.52;6.78;;;18.60;99.90;;;;;;5040094;28;20532;-83
2022/05/17 06:08:15;;;;;;;11.25;6.43;;;19.10;99.90;;;;;;5044080;28;20726;-84
2022/05/17 06:10:41;;;;;;;14.27;5.20;;;19.50;99.90;;;;;;5042357;28;20204;-84
2022/05/17 06:13:08;;;;;;;13.25;5.38;;;19.20;99.90;;;;;;5022338;28;20193;-84
2022/05/17 06:15:33;;;;;;;9.27;4.82;;;19.40;99.90;;;;;;5039813;28;20174;-84
2022/05/17 06:18:03;;;;;;;10.35;4.60;;;19.70;99.90;;;;;;5022312;28;20205;-84
2022/05/17 06:20:29;;;;;;;15.20;5.38;;;19.60;99.90;;;;;;5038815;28;20170;-83
2022/05/17 06:22:54;;;;;;;9.45;4.80;;;19.70;99.90;;;;;;5039144;28;20201;-84
2022/05/17 06:25:21;;;;;;;15.27;4.75;;;20.10;99.90;;;;;;5039404;28;20180;-84
2022/05/17 06:27:47;;;;;;;11.15;4.80;;;20.20;99.90;;;;;;5021546;28;20166;-84
2022/05/17 06:30:13;;;;;;;11.10;4.47;;;19.80;99.90;;;;;;5021426;28;20266;-83
2022/05/17 06:32:40;;;;;;;11.68;4.95;;;19.50;99.90;;;;;;5038684;28;20190;-84
2022/05/17 06:35:06;;;;;;;12.68;5.07;;;19.30;99.90;;;;;;5038642;28;20162;-82
2022/05/17 06:37:32;;;;;;;12.68;5.82;;;19.00;99.90;;;;;;5018448;28;20633;-82
2022/05/17 06:39:58;;;;;;;12.50;5.82;;;19.10;99.90;;;;;;5018710;28;20241;-83
2022/05/17 06:42:24;;;;;;;13.75;6.03;;;19.20;99.90;;;;;;5037298;28;20193;-83
2022/05/17 06:44:49;;;;;;;9.88;5.85;;;19.20;99.90;;;;;;5038217;28;20634;-83
2022/05/17 06:47:15;;;;;;;10.90;6.10;;;19.40;99.90;;;;;;5038453;28;20260;-84
2022/05/17 06:49:41;;;;;;;15.00;5.68;;;19.40;99.90;;;;;;5037315;28;20167;-83
2022/05/17 06:52:08;;;;;;;16.15;5.70;;;19.60;99.90;;;;;;5037463;28;20193;-82
2022/05/17 06:54:35;;;;;;;14.40;5.75;;;19.70;99.90;;;;;;5019152;28;20570;-83
2022/05/17 06:57:06;;;;;;;11.27;5.70;;;19.70;99.90;;;;;;5036575;28;20642;-84
2022/05/17 06:59:33;;;;;;;13.63;5.72;;;20.10;99.90;;;;;;5037595;28;20244;-84
2022/05/17 07:01:59;;;;;;;13.23;5.55;;;19.80;99.90;;;;;;5037829;28;20669;-84
2022/05/17 07:04:29;;;;;;;15.07;6.07;;;20.00;99.90;;;;;;5039262;28;20167;-84
2022/05/17 07:06:55;;;;;;;11.27;6.13;;;20.70;99.90;;;;;;5017524;28;20215;-83
2022/05/17 07:09:22;;;;;;;13.80;5.50;;;21.00;99.90;;;;;;5034920;28;20178;-84
2022/05/17 07:14:38;;;;;;;10.57;4.93;;;21.30;99.90;;;;;;5039987;28;20267;-83
2022/05/17 07:17:05;;;;;;;7.63;4.88;;;21.50;99.90;;;;;;5037187;28;20166;-83
2022/05/17 07:19:33;;;;;;;9.30;4.90;;;21.80;99.90;;;;;;5038673;28;20200;-85
2022/05/17 07:22:03;;;;;;;12.05;5.45;;;21.90;99.90;;;;;;5041157;28;20182;-85
2022/05/17 07:24:30;;;;;;;12.23;5.38;;;21.80;99.90;;;;;;5041430;28;20197;-84
2022/05/17 07:26:56;;;;;;;8.20;4.38;;;21.70;99.90;;;;;;5020686;28;20178;-84
2022/05/17 07:29:22;;;;;;;7.93;4.20;;;22.00;99.90;;;;;;5023079;28;20170;-84
2022/05/17 07:31:47;;;;;;;6.38;3.58;;;22.40;99.90;;;;;;5039391;28;20232;-85
2022/05/17 07:34:13;;;;;;;8.02;3.75;;;22.40;99.90;;;;;;5041135;28;20177;-85
2022/05/17 07:36:38;;;;;;;9.85;4.50;;;22.60;99.90;;;;;;5022238;28;20200;-84
2022/05/17 07:39:04;;;;;;;5.75;3.35;;;23.00;99.90;;;;;;5023626;28;20269;-83
2022/05/17 07:41:31;;;;;;;10.27;3.78;;;23.10;99.90;;;;;;5042621;28;20177;-84
2022/05/17 07:43:57;;;;;;;9.80;3.63;;;23.30;99.90;;;;;;5022748;28;20173;-84
2022/05/17 07:46:22;;;;;;;9.45;4.00;;;23.50;99.90;;;;;;5021985;28;20188;-85
2022/05/17 07:48:48;;;;;;;7.57;3.85;;;23.80;99.90;;;;;;5043331;28;20216;-83
2022/05/17 07:51:13;;;;;;;6.68;3.58;;;23.10;99.90;;;;;;5043031;28;20178;-84
2022/05/17 07:53:39;;;;;;;10.20;3.63;;;23.30;99.90;;;;;;5042958;28;20241;-85
2022/05/17 07:56:05;;;;;;;4.05;2.67;;;23.30;99.90;;;;;;5025502;28;20175;-84
2022/05/17 07:58:31;;;;;;;9.23;2.83;;;23.80;99.90;;;;;;5024595;28;20201;-84
2022/05/17 08:00:57;;;;;;;6.70;2.80;;;23.70;99.80;;;;;;5042147;28;20192;-85
2022/05/17 08:03:22;;;;;;;6.13;2.42;;;23.50;99.90;;;;;;5042278;28;20194;-83
2022/05/17 08:05:50;;;;;;;5.82;2.45;;;23.90;99.90;;;;;;5022438;28;20182;-82
2022/05/17 08:08:15;;;;;;;8.57;2.90;;;24.30;97.40;;;;;;5024119;28;20231;-85
2022/05/17 08:10:41;;;;;;;8.50;3.13;;;23.70;99.90;;;;;;5023648;28;20178;-83
2022/05/17 08:13:07;;;;;;;5.03;2.67;;;23.80;98.80;;;;;;5024744;28;20200;-84
2022/05/17 08:15:33;;;;;;;7.20;2.90;;;23.80;99.50;;;;;;5043003;28;20657;-84
2022/05/17 08:18:01;;;;;;;9.57;2.90;;;23.70;96.60;;;;;;5024244;28;20205;-84
2022/05/17 08:20:27;;;;;;;8.15;2.00;;;23.30;98.90;;;;;;5023211;28;20520;-83
2022/05/17 08:22:52;;;;;;;9.55;2.67;;;23.10;96.90;;;;;;5040805;28;20278;-84
2022/05/17 08:28:05;;;;;;;10.90;2.70;;;22.90;98.50;;;;;;5043629;28;20597;-82
2022/05/17 08:30:32;;;;;;;7.30;2.33;;;22.50;97.30;;;;;;5025429;28;20178;-83
2022/05/17 08:33:15;;;;;;;8.35;2.08;;;22.70;97.20;;;;;;5022982;28;20222;-83
2022/05/17 08:35:51;;;;;;;9.02;2.95;;;22.30;97.60;;;;;;5024536;28;20178;-85
2022/05/17 08:38:46;;;;;;;5.07;2.25;;;22.20;98.30;;;;;;5042610;28;20201;-82
2022/05/17 08:41:42;;;;;;;7.32;2.60;;;22.20;98.20;;;;;;5040251;28;20193;-82
2022/05/17 08:44:12;;;;;;;8.32;2.78;;;21.60;98.50;;;;;;5024918;28;20170;-85
2022/05/17 08:47:11;;;;;;;8.75;2.35;;;21.80;99.00;;;;;;5025168;28;20174;-81
2022/05/17 08:49:52;;;;;;;9.32;2.55;;;22.60;98.50;;;;;;5028573;28;20171;-84
2022/05/17 08:52:22;;;;;;;6.80;2.30;;;22.80;97.10;;;;;;5023884;28;20221;-83
2022/05/17 08:54:59;;;;;;;7.45;2.20;;;23.60;96.00;;;;;;5042278;28;20170;-84
2022/05/17 08:57:43;;;;;;;9.73;2.50;;;23.50;96.00;;;;;;5040352;28;20242;-82
2022/05/17 09:00:31;;;;;;;8.32;2.90;;;23.50;95.60;;;;;;5028305;28;20178;-84
2022/05/17 09:03:01;;;;;;;5.65;2.40;;;23.20;96.50;;;;;;5045513;28;20188;-84
2022/05/17 09:05:34;;;;;;;8.80;2.65;;;23.20;95.30;;;;;;5045189;28;20170;-84
2022/05/17 09:08:18;;;;;;;7.95;2.22;;;23.00;94.90;;;;;;5041684;28;20170;-84
2022/05/17 09:10:58;;;;;;;5.13;2.50;;;22.30;96.90;;;;;;5040539;28;20166;-84
2022/05/17 09:13:46;;;;;;;13.63;2.67;;;22.90;97.10;;;;;;5038347;28;20193;-83
2022/05/17 09:16:14;;;;;;;10.18;2.67;;;23.30;94.50;;;;;;5040856;28;20184;-84
2022/05/17 09:18:43;;;;;;;7.50;2.47;;;23.10;94.80;;;;;;5022350;28;20198;-83
2022/05/17 09:21:31;;;;;;;6.32;2.20;;;23.40;94.50;;;;;;5043004;28;20167;-84
2022/05/17 09:24:01;;;;;;;5.07;2.00;;;23.40;95.40;;;;;;5045800;28;20163;-83
2022/05/17 09:26:28;;;;;;;7.05;2.35;;;23.10;94.30;;;;;;5045248;28;20631;-84
2022/05/17 09:29:14;;;;;;;9.02;2.83;;;23.20;95.00;;;;;;5025622;28;20189;-84
2022/05/17 09:31:39;;;;;;;6.60;2.35;;;23.50;95.20;;;;;;5008912;28;20194;-83
2022/05/17 09:34:08;;;;;;;6.88;2.50;;;23.70;93.50;;;;;;5043668;28;20227;-84
2022/05/17 09:36:44;;;;;;;4.65;2.13;;;23.80;94.00;;;;;;5040179;28;20174;-84
2022/05/17 09:39:09;;;;;;;3.95;2.22;;;23.80;93.50;;;;;;5031717;28;20198;-84
2022/05/17 09:41:39;;;;;;;6.72;2.22;;;23.20;92.70;;;;;;5005618;28;20182;-83
2022/05/17 09:44:13;;;;;;;6.25;2.85;;;23.40;94.50;;;;;;5025075;28;20166;-83
2022/05/17 09:46:47;;;;;;;8.95;2.72;;;23.40;92.90;;;;;;5023709;28;20642;-82
2022/05/17 09:54:53;;;;;;;10.65;3.17;;;23.10;94.70;;;;;;5016936;28;20266;-82
2022/05/17 09:57:22;;;;;;;7.18;2.47;;;23.10;95.30;;;;;;4997138;28;20175;-82
2022/05/17 09:59:52;;;;;;;7.97;2.53;;;22.90;94.00;;;;;;5016032;28;20220;-84
2022/05/17 10:02:30;;;;;;;6.55;2.85;;;22.70;94.90;;;;;;4998254;28;20186;-83
2022/05/17 10:04:57;;;;;;;9.32;2.60;;;22.70;94.30;;;;;;5013605;28;20174;-83
2022/05/17 10:07:27;;;;;;;11.38;2.95;;;23.00;95.50;;;;;;5016798;28;20174;-83
2022/05/17 10:09:53;;;;;;;7.88;2.28;;;22.90;94.80;;;;;;5016869;28;20241;-83
2022/05/17 10:12:27;;;;;;;7.15;2.30;;;22.60;94.90;;;;;;4998588;28;20198;-83
2022/05/17 10:14:58;;;;;;;12.90;3.10;;;22.50;94.20;;;;;;4998322;28;20181;-83
2022/05/17 10:17:35;;;;;;;5.55;2.40;;;22.30;94.50;;;;;;5017790;28;20166;-82
2022/05/17 10:20:14;;;;;;;9.20;2.83;;;22.30;95.50;;;;;;5017352;28;20206;-84
2022/05/17 10:22:52;;;;;;;7.53;2.22;;;22.10;96.90;;;;;;5015695;28;20353;-83
2022/05/17 10:25:41;;;;;;;6.50;2.35;;;22.10;96.70;;;;;;5017146;28;20170;-83
2022/05/17 10:28:21;;;;;;;9.88;3.22;;;21.80;96.50;;;;;;5017165;28;20171;-83
2022/05/17 10:31:18;;;;;;;9.00;2.72;;;22.10;96.90;;;;;;5016719;28;20205;-81
2022/05/17 10:34:24;;;;;;;6.55;2.25;;;22.30;97.60;;;;;;5014517;28;20207;-83
2022/05/17 10:36:54;;;;;;;9.40;3.00;;;22.10;96.20;;;;;;4966333;28;20190;-85
2022/05/17 10:39:47;;;;;;;7.18;2.63;;;22.10;95.40;;;;;;5013308;28;20202;-84
2022/05/17 10:42:13;;;;;;;6.70;2.70;;;22.10;96.10;;;;;;5013968;28;20198;-83
2022/05/17 10:44:43;;;;;;;5.53;2.95;;;21.60;97.00;;;;;;5014923;28;20174;-83
2022/05/17 10:47:25;;;;;;;11.07;2.90;;;22.00;98.50;;;;;;4997648;28;20171;-82
2022/05/17 10:50:21;;;;;;;4.70;2.90;;;22.00;97.80;;;;;;5014460;28;20261;-82
2022/05/17 10:53:17;;;;;;;7.57;3.00;;;21.80;97.30;;;;;;5013378;28;20209;-82
2022/05/17 10:55:55;;;;;;;8.95;3.30;;;21.50;98.40;;;;;;5013208;28;20171;-82
2022/05/17 10:58:30;;;;;;;8.70;3.55;;;21.40;99.70;;;;;;4996374;28;20221;-82
2022/05/17 11:01:09;;;;;;;11.38;3.42;;;21.30;99.90;;;;;;5013832;28;20198;-82
2022/05/17 11:03:46;;;;;;;12.38;3.65;;;21.50;99.30;;;;;;4996566;28;20611;-82
2022/05/17 11:06:32;;;;;;;10.40;3.55;;;21.50;99.60;;;;;;5013676;28;20162;-83
2022/05/17 11:09:16;;;;;;;19.42;5.13;;;21.20;99.10;;;;;;5012709;28;20167;-82
2022/05/17 11:12:09;;;;;;;15.73;4.20;;;21.20;99.60;;;;;;5012272;28;20625;-82
2022/05/17 11:15:01;;;;;;;10.52;2.88;;;21.20;99.70;;;;;;5013017;28;20360;-81
2022/05/17 11:17:50;;;;;;;8.35;2.90;;;21.50;98.30;;;;;;5004387;28;20188;-82
2022/05/17 11:20:40;;;;;;;10.43;2.95;;;21.40;97.50;;;;;;5013099;28;20673;-82
2022/05/17 11:23:35;;;;;;;10.88;2.92;;;21.40;98.20;;;;;;5012354;28;20218;-81
2022/05/17 11:26:50;;;;;;;9.88;3.25;;;21.20;97.60;;;;;;4995268;28;20171;-82
2022/05/17 11:29:39;;;;;;;10.05;3.10;;;21.10;98.90;;;;;;4976109;28;20179;-83
2022/05/17 11:32:19;;;;;;;9.85;3.30;;;21.00;98.50;;;;;;4995506;28;20211;-82
2022/05/17 11:34:45;;;;;;;8.02;3.10;;;21.20;98.60;;;;;;5012409;28;20670;-82
2022/05/17 11:37:32;;;;;;;12.65;3.00;;;21.20;98.60;;;;;;5011239;28;20444;-82
2022/05/17 11:40:00;;;;;;;9.35;3.13;;;21.10;99.10;;;;;;5012509;28;20198;-82
2022/05/17 11:45:51;;;;;;;12.05;3.25;;;20.60;99.90;;;;;;4980424;28;20266;-82
2022/05/17 11:48:20;;;;;;;9.93;3.17;;;20.70;99.50;;;;;;5012560;28;20577;-82
2022/05/17 11:50:56;;;;;;;15.10;3.33;;;20.80;99.90;;;;;;5012318;28;20171;-82
2022/05/17 11:53:25;;;;;;;6.00;2.97;;;20.60;99.90;;;;;;4994395;28;20221;-82
2022/05/17 11:56:11;;;;;;;9.77;3.30;;;20.60;99.90;;;;;;5014035;28;20601;-83
2022/05/17 11:58:37;;;;;;;12.35;3.05;;;20.70;99.90;;;;;;4997112;28;20202;-81
2022/05/17 12:01:23;;;;;;;10.10;2.85;;;20.80;99.90;;;;;;5014604;28;20177;-81
2022/05/17 12:03:53;;;;;;;5.95;2.78;;;20.50;99.90;;;;;;5013429;28;20198;-81
2022/05/17 12:06:39;;;;;;;7.88;2.50;;;20.20;99.90;;;;;;4994685;28;20173;-83
2022/05/17 12:09:13;;;;;;;9.68;3.13;;;20.20;99.90;;;;;;4995493;28;20174;-82
2022/05/17 12:12:14;;;;;;;10.05;3.15;;;19.90;99.90;;;;;;5012647;28;20570;-82
2022/05/17 12:15:16;;;;;;;7.70;3.08;;;19.80;99.90;;;;;;4995344;28;20262;-82
2022/05/17 12:17:49;;;;;;;7.95;2.83;;;20.10;99.90;;;;;;5013348;28;20534;-82
2022/05/17 12:20:44;;;;;;;10.52;3.72;;;20.10;99.90;;;;;;5012382;28;20202;-82
2022/05/17 12:23:23;;;;;;;9.10;3.15;;;19.80;99.90;;;;;;4994138;28;20213;-81
2022/05/17 12:26:05;;;;;;;10.20;3.92;;;20.00;99.90;;;;;;5013121;28;20171;-82
2022/05/17 12:28:54;;;;;;;5.82;2.85;;;19.80;99.90;;;;;;4994903;28;20171;-82
2022/05/17 12:31:28;;;;;;;5.78;3.03;;;19.70;99.90;;;;;;5001426;28;20182;-81
2022/05/17 12:33:55;;;;;;;14.40;3.53;;;19.50;99.90;;;;;;5014289;28;20202;-82
2022/05/17 12:36:24;;;;;;;9.63;2.83;;;19.70;99.90;;;;;;4995486;28;20215;-81
2022/05/17 12:44:52;;;;;;;8.17;2.67;;;19.70;99.90;;;;;;5013632;28;20233;-83
2022/05/17 12:47:22;;;;;;;9.63;3.00;;;19.70;99.90;;;;;;5013979;28;20261;-83
2022/05/17 12:49:53;;;;;;;8.23;3.33;;;20.00;99.90;;;;;;5014249;28;20266;-83
2022/05/17 12:52:29;;;;;;;6.97;2.88;;;19.90;99.90;;;;;;5019558;22;20222;-84
2022/05/17 12:55:01;;;;;;;6.30;2.80;;;19.70;99.90;;;;;;4994498;28;20258;-84
2022/05/17 12:57:33;;;;;;;9.67;3.00;;;20.10;99.90;;;;;;4997936;28;20186;-83
2022/05/17 13:00:23;;;;;;;10.80;3.15;;;20.00;99.90;;;;;;4998835;28;20578;-85
2022/05/17 13:02:58;;;;;;;11.38;3.88;;;20.60;99.90;;;;;;4982183;28;20337;-83
2022/05/17 13:05:51;;;;;;;10.05;3.95;;;20.60;99.90;;;;;;4998418;28;20177;-83
2022/05/17 13:08:23;;;;;;;10.20;3.28;;;20.80;99.90;;;;;;4998381;28;20175;-84
2022/05/17 13:11:23;;;;;;;6.20;2.47;;;20.90;99.90;;;;;;4999598;28;20198;-85
2022/05/17 13:13:50;;;;;;;8.90;2.70;;;20.80;99.90;;;;;;4999030;28;20313;-84
2022/05/17 13:16:30;;;;;;;11.85;2.83;;;20.70;99.90;;;;;;4998778;28;20179;-85
2022/05/17 13:19:00;;;;;;;7.10;2.67;;;20.60;99.90;;;;;;5000529;28;20198;-85